EZY45YM EGKK-LIPX
Flight info
| Callsign | EZY45YM |
|---|---|
| Flight time | 1h 37m |
| Altitude | 37000 |
| Route | SFD Y47 BENBO UL612 VEULE DCT TEPRI UN491 POGZI DCT GELTA DCT LUVAL DCT SHARA DCT DEVDI DCT RIPUS DCT GERSA DCT SOSON DCT ODINA DCT LEGLO L615 NEVNI |
| Aircraft | A319/M-SDE3FGHIRWY/LB1 |
Departure
| Time | 2026-04-28 19:16 |
|---|---|
| Airport | London Gatwick Airport (EGKK) |
Arrival
| Time | 2026-04-28 20:53 |
|---|---|
| Airport | Verona Villafranca Valerio Catullo Airport (LIPX) |
| Time | Latitude | Longitude | Altitude | Speed | Heading |
|---|---|---|---|---|---|
| 2026-04-28 18:36 | 51.16113 | -0.18022 | 208 ft | 0 kts | 77° |
| 2026-04-28 18:59 | 51.16111 | -0.18037 | 215 ft | 3 kts | 78° |
| 2026-04-28 18:59 | 51.16106 | -0.18075 | 216 ft | 3 kts | 82° |
| 2026-04-28 19:00 | 51.16104 | -0.18114 | 205 ft | 3 kts | 89° |
| 2026-04-28 19:00 | 51.16105 | -0.18151 | 209 ft | 3 kts | 109° |
| 2026-04-28 19:00 | 51.16116 | -0.18178 | 214 ft | 3 kts | 164° |
| 2026-04-28 19:00 | 51.16123 | -0.18181 | 211 ft | 0 kts | 167° |
| 2026-04-28 19:04 | 51.16119 | -0.18179 | 213 ft | 1 kts | 167° |
| 2026-04-28 19:04 | 51.16107 | -0.18175 | 215 ft | 2 kts | 167° |
| 2026-04-28 19:04 | 51.16082 | -0.18166 | 209 ft | 5 kts | 167° |
| 2026-04-28 19:05 | 51.16035 | -0.18150 | 207 ft | 9 kts | 167° |
| 2026-04-28 19:05 | 51.15964 | -0.18125 | 205 ft | 12 kts | 167° |
| 2026-04-28 19:05 | 51.15876 | -0.18094 | 205 ft | 13 kts | 167° |
| 2026-04-28 19:05 | 51.15784 | -0.18063 | 208 ft | 14 kts | 168° |
| 2026-04-28 19:06 | 51.15692 | -0.18064 | 208 ft | 13 kts | 211° |
| 2026-04-28 19:06 | 51.15674 | -0.18150 | 209 ft | 13 kts | 263° |
| 2026-04-28 19:06 | 51.15598 | -0.18231 | 205 ft | 12 kts | 169° |
| 2026-04-28 19:06 | 51.15513 | -0.18202 | 212 ft | 13 kts | 167° |
| 2026-04-28 19:07 | 51.15441 | -0.18241 | 205 ft | 12 kts | 231° |
| 2026-04-28 19:07 | 51.15365 | -0.18272 | 210 ft | 12 kts | 170° |
| 2026-04-28 19:07 | 51.15283 | -0.18243 | 209 ft | 12 kts | 167° |
| 2026-04-28 19:07 | 51.15197 | -0.18214 | 205 ft | 13 kts | 168° |
| 2026-04-28 19:08 | 51.15114 | -0.18234 | 208 ft | 13 kts | 232° |
| 2026-04-28 19:08 | 51.15087 | -0.18382 | 203 ft | 15 kts | 257° |
| 2026-04-28 19:08 | 51.15066 | -0.18541 | 204 ft | 15 kts | 258° |
| 2026-04-28 19:08 | 51.15044 | -0.18711 | 203 ft | 16 kts | 257° |
| 2026-04-28 19:09 | 51.15019 | -0.18886 | 204 ft | 16 kts | 257° |
| 2026-04-28 19:09 | 51.14995 | -0.19063 | 205 ft | 16 kts | 257° |
| 2026-04-28 19:09 | 51.14971 | -0.19230 | 213 ft | 15 kts | 257° |
| 2026-04-28 19:09 | 51.14947 | -0.19402 | 208 ft | 18 kts | 257° |
| 2026-04-28 19:10 | 51.14916 | -0.19629 | 207 ft | 23 kts | 257° |
| 2026-04-28 19:10 | 51.14880 | -0.19895 | 210 ft | 25 kts | 258° |
| 2026-04-28 19:10 | 51.14841 | -0.20171 | 214 ft | 26 kts | 259° |
| 2026-04-28 19:10 | 51.14802 | -0.20453 | 207 ft | 26 kts | 258° |
| 2026-04-28 19:11 | 51.14764 | -0.20725 | 204 ft | 26 kts | 256° |
| 2026-04-28 19:11 | 51.14731 | -0.20972 | 205 ft | 19 kts | 258° |
| 2026-04-28 19:11 | 51.14709 | -0.21132 | 209 ft | 11 kts | 258° |
| 2026-04-28 19:11 | 51.14695 | -0.21223 | 209 ft | 9 kts | 257° |
| 2026-04-28 19:12 | 51.14695 | -0.21228 | 208 ft | 0 kts | 257° |
| 2026-04-28 19:12 | 51.14694 | -0.21235 | 213 ft | 3 kts | 257° |
| 2026-04-28 19:13 | 51.14678 | -0.21317 | 207 ft | 12 kts | 240° |
| 2026-04-28 19:13 | 51.14605 | -0.21325 | 205 ft | 8 kts | 164° |
| 2026-04-28 19:13 | 51.14556 | -0.21287 | 208 ft | 7 kts | 114° |
| 2026-04-28 19:13 | 51.14549 | -0.21241 | 213 ft | 4 kts | 143° |
| 2026-04-28 19:14 | 51.14518 | -0.21185 | 208 ft | 8 kts | 101° |
| 2026-04-28 19:14 | 51.14530 | -0.21107 | 211 ft | 7 kts | 76° |
| 2026-04-28 19:14 | 51.14533 | -0.21088 | 207 ft | 1 kts | 76° |
| 2026-04-28 19:14 | 51.14535 | -0.21074 | 207 ft | 1 kts | 76° |
| 2026-04-28 19:15 | 51.14536 | -0.21069 | 207 ft | 0 kts | 76° |
| 2026-04-28 19:15 | 51.14552 | -0.20941 | 212 ft | 44 kts | 79° |
| 2026-04-28 19:15 | 51.14623 | -0.20446 | 209 ft | 93 kts | 77° |
| 2026-04-28 19:16 | 51.14873 | -0.18605 | 539 ft | 140 kts | 74° |
| 2026-04-28 19:16 | 51.15079 | -0.17042 | 1132 ft | 148 kts | 74° |
| 2026-04-28 19:16 | 51.15299 | -0.15418 | 1825 ft | 148 kts | 74° |
| 2026-04-28 19:16 | 51.15517 | -0.13826 | 2519 ft | 148 kts | 73° |
| 2026-04-28 19:17 | 51.15751 | -0.12175 | 3134 ft | 160 kts | 75° |
| 2026-04-28 19:17 | 51.16021 | -0.10337 | 3655 ft | 182 kts | 75° |
| 2026-04-28 19:17 | 51.16311 | -0.08282 | 4193 ft | 203 kts | 83° |
| 2026-04-28 19:17 | 51.15880 | -0.06111 | 4998 ft | 221 kts | 123° |
| 2026-04-28 19:18 | 51.14511 | -0.04600 | 5488 ft | 259 kts | 153° |
| 2026-04-28 19:18 | 51.12730 | -0.03819 | 5862 ft | 269 kts | 162° |
| 2026-04-28 19:18 | 51.10885 | -0.03366 | 6008 ft | 269 kts | 166° |
| 2026-04-28 19:18 | 51.09041 | -0.02963 | 6035 ft | 266 kts | 164° |
| 2026-04-28 19:19 | 51.07237 | -0.02365 | 6023 ft | 264 kts | 160° |
| 2026-04-28 19:19 | 51.05456 | -0.01634 | 6023 ft | 265 kts | 158° |
| 2026-04-28 19:19 | 51.03683 | -0.00833 | 6029 ft | 264 kts | 158° |
| 2026-04-28 19:19 | 51.01921 | -0.00004 | 6179 ft | 264 kts | 157° |
| 2026-04-28 19:20 | 51.00159 | 0.00838 | 6277 ft | 264 kts | 157° |
| 2026-04-28 19:20 | 50.98398 | 0.01680 | 6276 ft | 265 kts | 157° |
| 2026-04-28 19:20 | 50.96654 | 0.02513 | 6269 ft | 265 kts | 157° |
| 2026-04-28 19:20 | 50.94884 | 0.03353 | 6262 ft | 265 kts | 157° |
| 2026-04-28 19:21 | 50.93118 | 0.04189 | 6250 ft | 265 kts | 157° |
| 2026-04-28 19:21 | 50.91353 | 0.05021 | 6247 ft | 264 kts | 157° |
| 2026-04-28 19:21 | 50.89582 | 0.05854 | 6425 ft | 268 kts | 157° |
| 2026-04-28 19:21 | 50.87787 | 0.06697 | 7474 ft | 268 kts | 158° |
| 2026-04-28 19:22 | 50.86602 | 0.07254 | 8158 ft | 269 kts | 158° |
| 2026-04-28 19:22 | 50.85410 | 0.07813 | 8835 ft | 270 kts | 159° |
| 2026-04-28 19:22 | 50.82371 | 0.09239 | 10394 ft | 277 kts | 159° |
| 2026-04-28 19:22 | 50.80512 | 0.10110 | 11297 ft | 279 kts | 159° |
| 2026-04-28 19:23 | 50.78641 | 0.10986 | 12220 ft | 281 kts | 159° |
| 2026-04-28 19:23 | 50.77358 | 0.11533 | 12804 ft | 286 kts | 164° |
| 2026-04-28 19:23 | 50.75372 | 0.11776 | 13608 ft | 299 kts | 176° |
| 2026-04-28 19:23 | 50.73216 | 0.11232 | 13876 ft | 328 kts | 187° |
| 2026-04-28 19:24 | 50.70937 | 0.10401 | 14349 ft | 341 kts | 188° |
| 2026-04-28 19:24 | 50.68605 | 0.09535 | 15026 ft | 346 kts | 188° |
| 2026-04-28 19:24 | 50.66244 | 0.08658 | 15743 ft | 350 kts | 187° |
| 2026-04-28 19:24 | 50.63855 | 0.07778 | 16485 ft | 354 kts | 188° |
| 2026-04-28 19:25 | 50.61449 | 0.06898 | 17284 ft | 356 kts | 187° |
| 2026-04-28 19:25 | 50.59027 | 0.06017 | 18027 ft | 359 kts | 187° |
| 2026-04-28 19:25 | 50.56583 | 0.05131 | 18718 ft | 362 kts | 187° |
| 2026-04-28 19:25 | 50.54112 | 0.04241 | 19342 ft | 366 kts | 187° |
| 2026-04-28 19:26 | 50.51615 | 0.03349 | 19966 ft | 369 kts | 187° |
| 2026-04-28 19:26 | 50.49126 | 0.02568 | 20565 ft | 369 kts | 181° |
| 2026-04-28 19:26 | 50.46576 | 0.02481 | 21176 ft | 365 kts | 169° |
| 2026-04-28 19:26 | 50.44090 | 0.03195 | 21798 ft | 362 kts | 158° |
| 2026-04-28 19:27 | 50.41763 | 0.04648 | 22429 ft | 359 kts | 148° |
| 2026-04-28 19:27 | 50.39637 | 0.06713 | 23049 ft | 361 kts | 144° |
| 2026-04-28 19:27 | 50.37533 | 0.08893 | 23658 ft | 364 kts | 144° |
| 2026-04-28 19:27 | 50.35411 | 0.11084 | 24159 ft | 367 kts | 144° |
| 2026-04-28 19:28 | 50.33268 | 0.13294 | 24633 ft | 370 kts | 144° |
| 2026-04-28 19:28 | 50.31103 | 0.15521 | 25093 ft | 374 kts | 144° |
| 2026-04-28 19:28 | 50.28922 | 0.17763 | 25547 ft | 377 kts | 144° |
| 2026-04-28 19:28 | 50.26720 | 0.20023 | 25989 ft | 380 kts | 143° |
| 2026-04-28 19:29 | 50.24503 | 0.22296 | 26427 ft | 383 kts | 143° |
| 2026-04-28 19:29 | 50.23021 | 0.23815 | 26712 ft | 385 kts | 143° |
| 2026-04-28 19:29 | 50.20008 | 0.26906 | 27281 ft | 389 kts | 143° |
| 2026-04-28 19:29 | 50.17766 | 0.29210 | 27731 ft | 392 kts | 144° |
| 2026-04-28 19:30 | 50.15479 | 0.31563 | 28168 ft | 395 kts | 144° |
| 2026-04-28 19:30 | 50.13181 | 0.33932 | 28579 ft | 398 kts | 144° |
| 2026-04-28 19:30 | 50.10860 | 0.36318 | 28977 ft | 401 kts | 144° |
| 2026-04-28 19:30 | 50.08517 | 0.38724 | 29358 ft | 405 kts | 144° |
| 2026-04-28 19:31 | 50.06153 | 0.41143 | 29732 ft | 409 kts | 144° |
| 2026-04-28 19:31 | 50.03769 | 0.43581 | 30041 ft | 413 kts | 144° |
| 2026-04-28 19:31 | 50.01351 | 0.46051 | 30316 ft | 416 kts | 144° |
| 2026-04-28 19:31 | 49.98921 | 0.48532 | 30632 ft | 419 kts | 145° |
| 2026-04-28 19:32 | 49.96477 | 0.51022 | 30947 ft | 421 kts | 146° |
| 2026-04-28 19:32 | 49.94012 | 0.53528 | 31165 ft | 426 kts | 147° |
| 2026-04-28 19:32 | 49.91517 | 0.56061 | 31420 ft | 430 kts | 147° |
| 2026-04-28 19:32 | 49.89013 | 0.58604 | 31711 ft | 432 kts | 147° |
| 2026-04-28 19:33 | 49.86522 | 0.61230 | 32052 ft | 433 kts | 143° |
| 2026-04-28 19:33 | 49.84315 | 0.64296 | 32464 ft | 433 kts | 134° |
| 2026-04-28 19:33 | 49.82299 | 0.67737 | 32997 ft | 429 kts | 133° |
| 2026-04-28 19:33 | 49.80298 | 0.71152 | 33430 ft | 428 kts | 133° |
| 2026-04-28 19:34 | 49.78282 | 0.74571 | 33768 ft | 429 kts | 133° |
| 2026-04-28 19:34 | 49.76269 | 0.77974 | 34204 ft | 428 kts | 133° |
| 2026-04-28 19:34 | 49.74251 | 0.81381 | 34457 ft | 431 kts | 133° |
| 2026-04-28 19:34 | 49.72217 | 0.84807 | 34662 ft | 434 kts | 134° |
| 2026-04-28 19:35 | 49.70174 | 0.88246 | 34968 ft | 434 kts | 134° |
| 2026-04-28 19:35 | 49.68134 | 0.91676 | 35246 ft | 434 kts | 134° |
| 2026-04-28 19:35 | 49.66110 | 0.95073 | 35450 ft | 436 kts | 134° |
| 2026-04-28 19:35 | 49.64053 | 0.98522 | 35716 ft | 437 kts | 134° |
| 2026-04-28 19:36 | 49.61992 | 1.01976 | 35992 ft | 437 kts | 134° |
| 2026-04-28 19:36 | 49.59935 | 1.05431 | 36258 ft | 438 kts | 134° |
| 2026-04-28 19:36 | 49.57876 | 1.08885 | 36539 ft | 437 kts | 134° |
| 2026-04-28 19:36 | 49.55815 | 1.12336 | 36806 ft | 438 kts | 134° |
| 2026-04-28 19:37 | 49.53747 | 1.15785 | 37030 ft | 439 kts | 134° |
| 2026-04-28 19:37 | 49.52367 | 1.18078 | 37073 ft | 438 kts | 134° |
| 2026-04-28 19:37 | 49.47554 | 1.26074 | 37111 ft | 437 kts | 134° |
| 2026-04-28 19:38 | 49.43423 | 1.32927 | 37111 ft | 437 kts | 134° |
| 2026-04-28 19:38 | 49.39290 | 1.39768 | 37108 ft | 436 kts | 135° |
| 2026-04-28 19:39 | 49.35156 | 1.46583 | 37104 ft | 436 kts | 135° |
| 2026-04-28 19:39 | 49.31011 | 1.53383 | 37100 ft | 436 kts | 135° |
| 2026-04-28 19:40 | 49.26870 | 1.60182 | 37092 ft | 436 kts | 135° |
| 2026-04-28 19:40 | 49.22747 | 1.66931 | 37081 ft | 437 kts | 135° |
| 2026-04-28 19:41 | 49.18597 | 1.73720 | 37082 ft | 437 kts | 135° |
| 2026-04-28 19:41 | 49.14438 | 1.80497 | 37060 ft | 437 kts | 136° |
| 2026-04-28 19:42 | 49.10265 | 1.87266 | 37069 ft | 438 kts | 136° |
| 2026-04-28 19:42 | 49.06786 | 1.92883 | 37051 ft | 438 kts | 136° |
| 2026-04-28 19:43 | 49.01895 | 2.00781 | 37033 ft | 439 kts | 136° |
| 2026-04-28 19:43 | 48.97691 | 2.07561 | 37040 ft | 440 kts | 136° |
| 2026-04-28 19:44 | 48.93504 | 2.14286 | 37041 ft | 441 kts | 137° |
| 2026-04-28 19:44 | 48.89275 | 2.21063 | 37026 ft | 442 kts | 137° |
| 2026-04-28 19:45 | 48.85008 | 2.27879 | 37031 ft | 443 kts | 137° |
| 2026-04-28 19:45 | 48.80763 | 2.34651 | 37038 ft | 443 kts | 137° |
| 2026-04-28 19:46 | 48.76507 | 2.41419 | 37043 ft | 444 kts | 137° |
| 2026-04-28 19:46 | 48.72274 | 2.48138 | 37049 ft | 444 kts | 137° |
| 2026-04-28 19:47 | 48.68002 | 2.54890 | 37051 ft | 444 kts | 137° |
| 2026-04-28 19:47 | 48.63725 | 2.61634 | 37032 ft | 444 kts | 137° |
| 2026-04-28 19:48 | 48.59454 | 2.68391 | 37028 ft | 447 kts | 135° |
| 2026-04-28 19:48 | 48.57579 | 2.72184 | 37031 ft | 453 kts | 124° |
| 2026-04-28 19:48 | 48.56173 | 2.76402 | 37032 ft | 458 kts | 114° |
| 2026-04-28 19:49 | 48.54876 | 2.85861 | 37031 ft | 466 kts | 95° |
| 2026-04-28 19:49 | 48.54553 | 2.95645 | 37026 ft | 467 kts | 95° |
| 2026-04-28 19:50 | 48.54038 | 3.10357 | 37014 ft | 468 kts | 95° |
| 2026-04-28 19:51 | 48.53694 | 3.20176 | 37021 ft | 469 kts | 95° |
| 2026-04-28 19:51 | 48.53344 | 3.30009 | 37029 ft | 469 kts | 95° |
| 2026-04-28 19:52 | 48.52991 | 3.39786 | 37037 ft | 470 kts | 95° |
| 2026-04-28 19:52 | 48.52616 | 3.49621 | 37031 ft | 470 kts | 95° |
| 2026-04-28 19:53 | 48.52229 | 3.59462 | 37034 ft | 470 kts | 96° |
| 2026-04-28 19:53 | 48.51838 | 3.69308 | 37035 ft | 470 kts | 96° |
| 2026-04-28 19:54 | 48.51440 | 3.79161 | 37033 ft | 470 kts | 96° |
| 2026-04-28 19:54 | 48.51037 | 3.89004 | 37035 ft | 470 kts | 96° |
| 2026-04-28 19:55 | 48.50625 | 3.98775 | 37036 ft | 470 kts | 96° |
| 2026-04-28 19:55 | 48.49364 | 4.08359 | 37034 ft | 465 kts | 108° |
| 2026-04-28 19:56 | 48.47640 | 4.17767 | 37033 ft | 465 kts | 108° |
| 2026-04-28 19:56 | 48.45933 | 4.27193 | 37034 ft | 466 kts | 108° |
| 2026-04-28 19:57 | 48.44211 | 4.36606 | 37024 ft | 466 kts | 108° |
| 2026-04-28 19:57 | 48.42470 | 4.46011 | 37024 ft | 467 kts | 108° |
| 2026-04-28 19:58 | 48.40722 | 4.55428 | 37031 ft | 467 kts | 108° |
| 2026-04-28 19:58 | 48.38978 | 4.64787 | 37034 ft | 468 kts | 109° |
| 2026-04-28 19:59 | 48.37212 | 4.74204 | 37028 ft | 468 kts | 108° |
| 2026-04-28 19:59 | 48.35437 | 4.83633 | 37030 ft | 469 kts | 108° |
| 2026-04-28 20:00 | 48.33650 | 4.93064 | 37032 ft | 470 kts | 109° |
| 2026-04-28 20:00 | 48.31851 | 5.02522 | 37037 ft | 470 kts | 109° |
| 2026-04-28 20:01 | 48.30043 | 5.11955 | 37043 ft | 470 kts | 109° |
| 2026-04-28 20:01 | 48.28209 | 5.21383 | 37036 ft | 470 kts | 109° |
| 2026-04-28 20:02 | 48.26331 | 5.30722 | 37043 ft | 470 kts | 110° |
| 2026-04-28 20:02 | 48.24419 | 5.40113 | 37049 ft | 471 kts | 110° |
| 2026-04-28 20:03 | 48.22515 | 5.49517 | 37048 ft | 471 kts | 110° |
| 2026-04-28 20:03 | 48.20605 | 5.58913 | 37050 ft | 471 kts | 110° |
| 2026-04-28 20:04 | 48.18673 | 5.68305 | 37051 ft | 472 kts | 110° |
| 2026-04-28 20:04 | 48.16735 | 5.77702 | 37058 ft | 472 kts | 110° |
| 2026-04-28 20:05 | 48.14798 | 5.87109 | 37068 ft | 473 kts | 110° |
| 2026-04-28 20:05 | 48.12853 | 5.96507 | 37068 ft | 473 kts | 110° |
| 2026-04-28 20:06 | 48.10897 | 6.05908 | 37058 ft | 473 kts | 110° |
| 2026-04-28 20:06 | 48.08926 | 6.15317 | 37060 ft | 474 kts | 110° |
| 2026-04-28 20:07 | 48.06942 | 6.24724 | 37056 ft | 475 kts | 110° |
| 2026-04-28 20:07 | 48.04953 | 6.34146 | 37043 ft | 475 kts | 110° |
| 2026-04-28 20:08 | 48.02951 | 6.43549 | 37046 ft | 475 kts | 110° |
| 2026-04-28 20:08 | 48.00955 | 6.52906 | 37057 ft | 476 kts | 110° |
| 2026-04-28 20:09 | 47.98937 | 6.62318 | 37055 ft | 476 kts | 110° |
| 2026-04-28 20:09 | 47.96832 | 6.71706 | 37061 ft | 475 kts | 113° |
| 2026-04-28 20:10 | 47.94383 | 6.80846 | 37063 ft | 475 kts | 115° |
| 2026-04-28 20:10 | 47.91795 | 6.89905 | 37059 ft | 475 kts | 115° |
| 2026-04-28 20:11 | 47.89256 | 6.99014 | 37057 ft | 475 kts | 115° |
| 2026-04-28 20:11 | 47.86773 | 7.08148 | 37061 ft | 476 kts | 114° |
| 2026-04-28 20:12 | 47.84285 | 7.17274 | 37064 ft | 475 kts | 115° |
| 2026-04-28 20:12 | 47.81795 | 7.26337 | 37057 ft | 476 kts | 114° |
| 2026-04-28 20:13 | 47.79274 | 7.35455 | 37054 ft | 477 kts | 115° |
| 2026-04-28 20:13 | 47.76741 | 7.44563 | 37051 ft | 477 kts | 115° |
| 2026-04-28 20:14 | 47.74117 | 7.53619 | 37069 ft | 475 kts | 121° |
| 2026-04-28 20:14 | 47.70453 | 7.61715 | 37074 ft | 471 kts | 129° |
| 2026-04-28 20:15 | 47.66558 | 7.69562 | 37066 ft | 472 kts | 129° |
| 2026-04-28 20:15 | 47.62681 | 7.77363 | 37071 ft | 473 kts | 129° |
| 2026-04-28 20:16 | 47.58763 | 7.85214 | 37072 ft | 474 kts | 129° |
| 2026-04-28 20:16 | 47.54837 | 7.93062 | 37079 ft | 474 kts | 130° |
| 2026-04-28 20:17 | 47.50907 | 8.00902 | 37069 ft | 474 kts | 129° |
| 2026-04-28 20:17 | 47.47635 | 8.07416 | 37086 ft | 474 kts | 129° |
| 2026-04-28 20:18 | 47.43696 | 8.15226 | 37095 ft | 474 kts | 130° |
| 2026-04-28 20:18 | 47.39755 | 8.23027 | 37098 ft | 474 kts | 130° |
| 2026-04-28 20:19 | 47.35807 | 8.30823 | 37099 ft | 474 kts | 130° |
| 2026-04-28 20:19 | 47.31848 | 8.38598 | 37095 ft | 474 kts | 130° |
| 2026-04-28 20:20 | 47.27354 | 8.45568 | 37085 ft | 466 kts | 148° |
| 2026-04-28 20:20 | 47.21716 | 8.49932 | 37097 ft | 453 kts | 167° |
| 2026-04-28 20:21 | 47.15648 | 8.51506 | 37101 ft | 443 kts | 180° |
| 2026-04-28 20:21 | 47.09502 | 8.52382 | 37104 ft | 444 kts | 180° |
| 2026-04-28 20:22 | 47.03360 | 8.53280 | 37095 ft | 443 kts | 179° |
| 2026-04-28 20:22 | 46.97225 | 8.54177 | 37122 ft | 443 kts | 179° |
| 2026-04-28 20:23 | 46.91095 | 8.55058 | 37122 ft | 441 kts | 180° |
| 2026-04-28 20:23 | 46.84981 | 8.55927 | 37100 ft | 440 kts | 180° |
| 2026-04-28 20:24 | 46.78928 | 8.56798 | 37117 ft | 440 kts | 179° |
| 2026-04-28 20:24 | 46.72823 | 8.57672 | 37125 ft | 441 kts | 179° |
| 2026-04-28 20:25 | 46.66712 | 8.58546 | 37116 ft | 440 kts | 179° |
| 2026-04-28 20:25 | 46.60606 | 8.59416 | 37117 ft | 441 kts | 179° |
| 2026-04-28 20:26 | 46.54489 | 8.60290 | 37133 ft | 441 kts | 179° |
| 2026-04-28 20:26 | 46.48389 | 8.61165 | 37128 ft | 440 kts | 179° |
| 2026-04-28 20:27 | 46.42300 | 8.62030 | 37124 ft | 439 kts | 179° |
| 2026-04-28 20:27 | 46.36243 | 8.62878 | 37114 ft | 440 kts | 180° |
| 2026-04-28 20:28 | 46.30146 | 8.63746 | 37113 ft | 440 kts | 179° |
| 2026-04-28 20:28 | 46.24057 | 8.64603 | 37074 ft | 439 kts | 179° |
| 2026-04-28 20:29 | 46.17962 | 8.65466 | 37101 ft | 441 kts | 177° |
| 2026-04-28 20:29 | 46.14955 | 8.66451 | 37112 ft | 448 kts | 165° |
| 2026-04-28 20:29 | 46.12092 | 8.68294 | 37106 ft | 454 kts | 154° |
| 2026-04-28 20:29 | 46.09550 | 8.70928 | 37094 ft | 459 kts | 141° |
| 2026-04-28 20:30 | 46.07379 | 8.74341 | 37101 ft | 465 kts | 128° |
| 2026-04-28 20:30 | 46.04034 | 8.82380 | 36854 ft | 470 kts | 122° |
| 2026-04-28 20:30 | 46.02389 | 8.86449 | 36573 ft | 470 kts | 122° |
| 2026-04-28 20:31 | 46.00739 | 8.90504 | 36317 ft | 470 kts | 122° |
| 2026-04-28 20:31 | 45.99083 | 8.94557 | 36055 ft | 470 kts | 122° |
| 2026-04-28 20:31 | 45.97425 | 8.98611 | 35436 ft | 470 kts | 122° |
| 2026-04-28 20:31 | 45.95766 | 9.02668 | 34732 ft | 471 kts | 122° |
| 2026-04-28 20:32 | 45.94122 | 9.06692 | 34014 ft | 473 kts | 123° |
| 2026-04-28 20:32 | 45.92465 | 9.10745 | 33409 ft | 469 kts | 123° |
| 2026-04-28 20:32 | 45.90817 | 9.14771 | 32846 ft | 465 kts | 123° |
| 2026-04-28 20:32 | 45.89186 | 9.18749 | 32304 ft | 461 kts | 123° |
| 2026-04-28 20:33 | 45.87562 | 9.22700 | 31774 ft | 456 kts | 123° |
| 2026-04-28 20:33 | 45.85957 | 9.26597 | 31242 ft | 452 kts | 123° |
| 2026-04-28 20:33 | 45.84357 | 9.30472 | 30743 ft | 448 kts | 123° |
| 2026-04-28 20:33 | 45.82775 | 9.34294 | 30267 ft | 443 kts | 123° |
| 2026-04-28 20:34 | 45.81209 | 9.38079 | 29724 ft | 440 kts | 123° |
| 2026-04-28 20:34 | 45.79659 | 9.41827 | 29182 ft | 435 kts | 123° |
| 2026-04-28 20:34 | 45.78123 | 9.45538 | 28652 ft | 431 kts | 123° |
| 2026-04-28 20:34 | 45.76598 | 9.49212 | 28129 ft | 427 kts | 123° |
| 2026-04-28 20:35 | 45.75084 | 9.52854 | 27665 ft | 423 kts | 123° |
| 2026-04-28 20:35 | 45.73586 | 9.56455 | 27187 ft | 419 kts | 123° |
| 2026-04-28 20:35 | 45.72099 | 9.60024 | 26728 ft | 415 kts | 123° |
| 2026-04-28 20:35 | 45.70624 | 9.63559 | 26277 ft | 413 kts | 123° |
| 2026-04-28 20:36 | 45.69147 | 9.67093 | 25673 ft | 414 kts | 123° |
| 2026-04-28 20:36 | 45.67667 | 9.70629 | 25074 ft | 415 kts | 123° |
| 2026-04-28 20:36 | 45.66286 | 9.74201 | 24486 ft | 417 kts | 115° |
| 2026-04-28 20:36 | 45.65363 | 9.78130 | 23905 ft | 418 kts | 103° |
| 2026-04-28 20:37 | 45.65009 | 9.82256 | 23271 ft | 419 kts | 91° |
| 2026-04-28 20:37 | 45.65013 | 9.86418 | 22592 ft | 420 kts | 90° |
| 2026-04-28 20:37 | 45.65014 | 9.90595 | 21929 ft | 420 kts | 90° |
| 2026-04-28 20:37 | 45.65004 | 9.94772 | 21281 ft | 421 kts | 90° |
| 2026-04-28 20:38 | 45.64986 | 9.98958 | 20648 ft | 421 kts | 90° |
| 2026-04-28 20:38 | 45.64963 | 10.03152 | 19975 ft | 423 kts | 90° |
| 2026-04-28 20:38 | 45.64939 | 10.07364 | 19274 ft | 425 kts | 90° |
| 2026-04-28 20:38 | 45.64917 | 10.11588 | 18607 ft | 426 kts | 90° |
| 2026-04-28 20:39 | 45.64900 | 10.15823 | 17899 ft | 427 kts | 90° |
| 2026-04-28 20:39 | 45.64890 | 10.20070 | 17156 ft | 427 kts | 90° |
| 2026-04-28 20:39 | 45.64883 | 10.24302 | 16413 ft | 422 kts | 90° |
| 2026-04-28 20:39 | 45.64876 | 10.28436 | 15711 ft | 410 kts | 90° |
| 2026-04-28 20:40 | 45.64869 | 10.32452 | 15049 ft | 398 kts | 90° |
| 2026-04-28 20:40 | 45.64703 | 10.36337 | 14377 ft | 386 kts | 101° |
| 2026-04-28 20:40 | 45.63906 | 10.39926 | 13703 ft | 374 kts | 117° |
| 2026-04-28 20:40 | 45.62540 | 10.42996 | 12963 ft | 361 kts | 132° |
| 2026-04-28 20:41 | 45.60747 | 10.45411 | 12240 ft | 349 kts | 146° |
| 2026-04-28 20:41 | 45.58701 | 10.47181 | 11536 ft | 340 kts | 153° |
| 2026-04-28 20:41 | 45.56662 | 10.48817 | 10842 ft | 333 kts | 152° |
| 2026-04-28 20:41 | 45.54665 | 10.50420 | 10169 ft | 326 kts | 152° |
| 2026-04-28 20:42 | 45.52681 | 10.52016 | 9461 ft | 329 kts | 152° |
| 2026-04-28 20:42 | 45.50675 | 10.53633 | 8756 ft | 332 kts | 152° |
| 2026-04-28 20:42 | 45.48699 | 10.55227 | 8564 ft | 319 kts | 151° |
| 2026-04-28 20:42 | 45.46804 | 10.56751 | 8432 ft | 306 kts | 151° |
| 2026-04-28 20:43 | 45.45015 | 10.58184 | 8304 ft | 293 kts | 152° |
| 2026-04-28 20:43 | 45.43263 | 10.59584 | 8176 ft | 285 kts | 152° |
| 2026-04-28 20:43 | 45.41538 | 10.60962 | 8049 ft | 284 kts | 152° |
| 2026-04-28 20:43 | 45.39819 | 10.62334 | 7925 ft | 283 kts | 152° |
| 2026-04-28 20:44 | 45.38027 | 10.63461 | 7800 ft | 281 kts | 166° |
| 2026-04-28 20:44 | 45.36118 | 10.63748 | 7674 ft | 269 kts | 185° |
| 2026-04-28 20:44 | 45.34337 | 10.63226 | 7550 ft | 256 kts | 201° |
| 2026-04-28 20:44 | 45.32811 | 10.62068 | 7426 ft | 243 kts | 218° |
| 2026-04-28 20:45 | 45.31606 | 10.60467 | 7301 ft | 232 kts | 227° |
| 2026-04-28 20:45 | 45.30514 | 10.58848 | 7179 ft | 223 kts | 226° |
| 2026-04-28 20:45 | 45.29445 | 10.57287 | 7055 ft | 219 kts | 226° |
| 2026-04-28 20:45 | 45.28391 | 10.55768 | 6934 ft | 218 kts | 226° |
| 2026-04-28 20:46 | 45.27184 | 10.54488 | 6809 ft | 217 kts | 203° |
| 2026-04-28 20:46 | 45.25720 | 10.54053 | 6684 ft | 216 kts | 178° |
| 2026-04-28 20:46 | 45.24264 | 10.54533 | 6571 ft | 216 kts | 154° |
| 2026-04-28 20:46 | 45.23067 | 10.55811 | 6442 ft | 217 kts | 135° |
| 2026-04-28 20:47 | 45.21989 | 10.57313 | 6320 ft | 217 kts | 136° |
| 2026-04-28 20:47 | 45.21103 | 10.59031 | 6121 ft | 219 kts | 110° |
| 2026-04-28 20:47 | 45.21002 | 10.61160 | 5754 ft | 220 kts | 75° |
| 2026-04-28 20:47 | 45.21756 | 10.63016 | 5387 ft | 221 kts | 42° |
| 2026-04-28 20:48 | 45.22953 | 10.64416 | 5003 ft | 224 kts | 46° |
| 2026-04-28 20:48 | 45.23955 | 10.66117 | 4611 ft | 226 kts | 50° |
| 2026-04-28 20:48 | 45.25025 | 10.67784 | 4126 ft | 233 kts | 46° |
| 2026-04-28 20:48 | 45.26136 | 10.69397 | 3980 ft | 224 kts | 46° |
| 2026-04-28 20:49 | 45.27208 | 10.70943 | 3856 ft | 215 kts | 46° |
| 2026-04-28 20:49 | 45.28267 | 10.72472 | 3453 ft | 221 kts | 46° |
| 2026-04-28 20:49 | 45.29360 | 10.74052 | 3009 ft | 228 kts | 47° |
| 2026-04-28 20:49 | 45.30483 | 10.75676 | 2559 ft | 233 kts | 47° |
| 2026-04-28 20:50 | 45.31626 | 10.77328 | 2222 ft | 234 kts | 47° |
| 2026-04-28 20:50 | 45.32746 | 10.78949 | 1947 ft | 224 kts | 47° |
| 2026-04-28 20:50 | 45.33793 | 10.80463 | 1629 ft | 204 kts | 47° |
| 2026-04-28 20:50 | 45.34727 | 10.81816 | 1371 ft | 185 kts | 47° |
| 2026-04-28 20:51 | 45.35586 | 10.83062 | 1147 ft | 169 kts | 47° |
| 2026-04-28 20:51 | 45.36383 | 10.84219 | 934 ft | 158 kts | 47° |
| 2026-04-28 20:51 | 45.37134 | 10.85308 | 731 ft | 151 kts | 47° |
| 2026-04-28 20:51 | 45.37622 | 10.86018 | 589 ft | 146 kts | 47° |
| 2026-04-28 20:52 | 45.38529 | 10.87351 | 327 ft | 137 kts | 46° |
| 2026-04-28 20:52 | 45.39192 | 10.88297 | 245 ft | 128 kts | 47° |
| 2026-04-28 20:52 | 45.39718 | 10.89073 | 239 ft | 85 kts | 46° |
| 2026-04-28 20:52 | 45.40026 | 10.89522 | 244 ft | 52 kts | 46° |
| 2026-04-28 20:53 | 45.40305 | 10.90091 | 244 ft | 18 kts | 77° |
| 2026-04-28 20:53 | 45.40330 | 10.90241 | 243 ft | 14 kts | 76° |
| 2026-04-28 20:53 | 45.40375 | 10.90346 | 242 ft | 14 kts | 45° |
| 2026-04-28 20:54 | 45.40432 | 10.90429 | 242 ft | 12 kts | 46° |
| 2026-04-28 20:54 | 45.40487 | 10.90513 | 242 ft | 9 kts | 59° |
| 2026-04-28 20:54 | 45.40445 | 10.90570 | 242 ft | 10 kts | 146° |
| 2026-04-28 20:54 | 45.40420 | 10.90655 | 242 ft | 7 kts | 70° |
| 2026-04-28 20:55 | 45.40394 | 10.90711 | 242 ft | 2 kts | 135° |
| 2026-04-28 20:55 | 45.40382 | 10.90728 | 242 ft | 0 kts | 135° |